Flight Track Log - Related Links

Times and Time Zones

All times are in EDT time to prevent confusion due to time zone crossing. See the N9294N flight status page for this flight to view local times or setup timezone preferences in your user account.

Time Position Orientation Groundspeed Altitude Reporting Facility
EDT Latitude Longitude Course Direction KTS MPH feet Rate Location/Type
Tue 01:10:48 PM 33.7667 -84.5667 263° West 110 127 1,900  Level Atlanta TRACON
Tue 01:11:48 PM 33.7667 -84.6167 270° West 114 131 2,600 600 Climbing Atlanta TRACON
Tue 01:12:48 PM 33.7500 -84.6500 239° Southwest 117 135 3,100 250 Climbing Atlanta TRACON
Tue 01:13:48 PM 33.7500 -84.6833 270° West 145 167 3,100 350 Level Atlanta TRACON
Tue 01:14:48 PM 33.7333 -84.7333 248° West 124 143 3,800 500 Climbing Atlanta TRACON
Tue 01:15:48 PM 33.7333 -84.7833 270° West 136 157 4,100 150 Climbing Atlanta TRACON
Tue 01:16:00 PM 33.7474 -84.8099 263° West  Level FlightAware
Tue 01:16:48 PM 33.7333 -84.8333 270° West 154 177 4,100  Level Atlanta TRACON
Tue 01:17:54 PM 33.7333 -84.8833 270° West 156 180 4,400 400 Climbing Atlanta TRACON
Tue 01:19:18 PM 33.7325 -84.9506 269° West 147 169 5,100 458 Climbing Atlanta Center
Tue 01:20:18 PM 33.7300 -84.9906 266° West 141 162 5,500 450 Climbing Atlanta Center
Tue 01:21:18 PM 33.7275 -85.0328 266° West 135 155 6,000 300 Climbing Atlanta Center
Tue 01:22:18 PM 33.7231 -85.0778 263° West 135 155 6,100 50 Climbing Atlanta Center
Tue 01:23:18 PM 33.7144 -85.1253 258° West 141 162 6,100  Level Atlanta Center
Tue 01:24:18 PM 33.7097 -85.1725 263° West 147 169 6,100  Level Atlanta Center
Tue 01:25:18 PM 33.7008 -85.2200 257° West 147 169 6,100  Level Atlanta Center
Tue 01:26:18 PM 33.6942 -85.2697 261° West 147 169 6,100 -50 Level Atlanta Center
Tue 01:27:18 PM 33.6875 -85.3194 261° West 147 169 6,000  Descending Atlanta Center
Tue 01:28:18 PM 33.6806 -85.3669 260° West 142 163 6,100 50 Climbing Atlanta Center
Tue 01:29:18 PM 33.6717 -85.4167 258° West 142 163 6,100  Level Atlanta Center
Tue 01:30:18 PM 33.6650 -85.4614 260° West 142 163 6,100  Level Atlanta Center
Tue 01:31:18 PM 33.6603 -85.5114 264° West 142 163 6,100  Level Atlanta Center
Tue 01:32:18 PM 33.6533 -85.5586 260° West 142 163 6,100  Level Atlanta Center
Tue 01:33:18 PM 33.6444 -85.6033 257° West 142 163 6,100  Level Atlanta Center
Tue 01:34:18 PM 33.6375 -85.6531 260° West 147 169 6,100  Level Atlanta Center
Tue 01:35:18 PM 33.6328 -85.7031 264° West 147 169 6,100  Level Atlanta Center
Tue 01:36:18 PM 33.6239 -85.7453 256° West 147 169 6,100  Level Atlanta Center
Tue 01:37:18 PM 33.6169 -85.7950 260° West 147 169 6,100  Level Atlanta Center
Tue 01:38:18 PM 33.6056 -85.8472 255° West 147 169 6,100  Level Atlanta Center
Tue 01:39:18 PM 33.5986 -85.8944 260° West 147 169 6,100  Level Atlanta Center
Tue 01:40:18 PM 33.5917 -85.9417 260° West 147 169 6,100 50 Level Atlanta Center
Tue 01:41:18 PM 33.5847 -85.9914 260° West 147 169 6,200  Climbing Atlanta Center
Tue 01:42:18 PM 33.5756 -86.0358 256° West 142 163 6,100 -50 Descending Atlanta Center
Tue 01:43:18 PM 33.5644 -86.0806 253° West 142 163 6,100  Level Atlanta Center
Tue 01:44:18 PM 33.5511 -86.1300 252° West 142 163 6,100  Level Atlanta Center
Tue 01:45:18 PM 33.5400 -86.1747 253° West 149 171 6,100  Level Atlanta Center
Tue 01:46:18 PM 33.5267 -86.2217 251° West 149 171 6,100  Level Atlanta Center
Tue 01:47:18 PM 33.5153 -86.2664 253° West 149 171 6,100  Level Atlanta Center
Tue 01:48:42 PM 33.4950 -86.3431 252° West 147 169 6,100  Level Atlanta Center
Tue 01:49:30 PM 33.4839 -86.3800 250° West 147 169 6,100  Level Atlanta Center
Tue 01:50:25 PM 33.4747 -86.4222 255° West 145 167 6,100  Level Atlanta Center
Tue 01:51:25 PM 33.4614 -86.4692 251° West 146 168 6,100  Level Atlanta Center
Tue 01:52:20 PM 33.4503 -86.5086 251° West 145 167 6,100  Level Atlanta Center
Tue 01:53:20 PM 33.4389 -86.5556 254° West 145 167 6,100  Level Atlanta Center
Tue 01:54:21 PM 33.4275 -86.6000 253° West 145 167 6,100  Level Atlanta Center
Tue 01:55:22 PM 33.4139 -86.6494 252° West 145 167 6,100  Level Atlanta Center
Tue 01:56:22 PM 33.4025 -86.6939 253° West 143 165 6,100  Level Atlanta Center
Tue 01:57:23 PM 33.3889 -86.7383 250° West 143 165 6,100  Level Atlanta Center
Tue 01:58:18 PM 33.3775 -86.7803 252° West 143 165 6,100  Level Atlanta Center
Tue 01:59:36 PM 33.3617 -86.8394 252° West 143 165 6,100 -45 Level Atlanta Center
Tue 02:00:31 PM 33.3525 -86.8814 255° West 143 165 6,000  Descending Atlanta Center
Tue 02:01:37 PM 33.3367 -86.9331 250° West 143 165 6,100 47 Climbing Atlanta Center
Tue 02:02:38 PM 33.3250 -86.9775 253° West 142 163 6,100  Level Atlanta Center
Tue 02:03:39 PM 33.3136 -87.0242 254° West 144 166 6,100  Level Atlanta Center
Tue 02:04:39 PM 33.3000 -87.0683 250° West 144 166 6,100  Level Atlanta Center
Tue 02:05:46 PM 33.2861 -87.1178 251° West 146 168 6,100  Level Atlanta Center
Tue 02:06:47 PM 33.2767 -87.1644 256° West 146 168 6,100  Level Atlanta Center
Tue 02:07:47 PM 33.2608 -87.2136 249° West 145 167 6,100 50 Level Atlanta Center
Tue 02:08:48 PM 33.2511 -87.2606 256° West 141 162 6,200  Climbing Atlanta Center
Tue 02:10:06 PM 33.2331 -87.3119 247° West 142 163 6,100 -87 Descending Atlanta Center
Tue 02:11:06 PM 33.2214 -87.3564 253° West 147 169 6,000  Descending Atlanta Center
Tue 02:12:06 PM 33.2097 -87.4056 254° West 147 169 6,100  Climbing Atlanta Center
Tue 02:13:06 PM 33.1981 -87.4497 252° West 147 169 6,000  Descending Atlanta Center
Tue 02:14:06 PM 33.1864 -87.4964 253° West 147 169 6,100  Climbing Atlanta Center
Tue 02:15:06 PM 33.1767 -87.5456 257° West 147 169 6,000 -50 Descending Atlanta Center
Tue 02:16:06 PM 33.1608 -87.5897 247° West 147 169 6,000  Level Atlanta Center
Tue 02:17:06 PM 33.1469 -87.6314 248° West 147 169 6,000  Level Atlanta Center
Tue 02:18:06 PM 33.1311 -87.6803 249° West 147 169 6,000  Level Atlanta Center
Tue 02:19:06 PM 33.1214 -87.7244 255° West 147 169 6,000  Level Atlanta Center
Tue 02:20:06 PM 33.1136 -87.7714 259° West 152 175 6,000 44 Level Atlanta Center
Tue 02:21:22 PM 33.1097 -87.8350 266° West 141 162 6,100 -140 Climbing Memphis Center
Tue 02:23:00 PM 33.0797 -87.9013 242° Southwest  Level FlightAware
Tue 02:30:00 PM 32.9784 -88.2047 252° West  Level FlightAware
Tue 02:31:00 PM 32.9664 -88.2491 252° West  Level FlightAware
Tue 02:32:00 PM 32.9544 -88.2935 252° West  Level FlightAware
Tue 02:33:00 PM 32.9424 -88.3379 252° West  Level FlightAware
Tue 02:34:00 PM 32.9304 -88.3823 252° West  Level FlightAware
Tue 02:35:00 PM 32.9183 -88.4267 252° West  Level FlightAware
Tue 02:36:00 PM 32.9062 -88.4712 252° West  Level FlightAware
Tue 02:37:00 PM 32.8941 -88.5156 252° West  Level FlightAware
Tue 02:38:00 PM 32.8820 -88.5601 252° West  Level FlightAware
Tue 02:39:00 PM 32.8699 -88.6045 252° West  Level FlightAware
Tue 02:40:00 PM 32.8578 -88.6489 252° West  Level FlightAware
Tue 02:41:00 PM 32.8456 -88.6933 252° West  Level FlightAware
Tue 02:41:33 PM 32.8394 -88.7994 252° West 154 177 3,000  Level Memphis Center
Tue 02:42:00 PM 32.8334 -88.7377 252° West  Level FlightAware
Tue 02:42:33 PM 32.8275 -88.8467 253° West 149 171 3,000  Level Memphis Center
Tue 02:43:00 PM 32.8212 -88.7821 252° West  Level FlightAware
Tue 02:43:32 PM 32.8114 -88.8914 247° West 156 180 3,000  Level Memphis Center
Tue 02:44:00 PM 32.8090 -88.8264 252° West  Level FlightAware
Tue 02:44:33 PM 32.7975 -88.9386 251° West 156 180 3,100  Level Memphis Center
Tue 02:45:00 PM 32.7968 -88.8708 252° West  Level FlightAware
Tue 02:45:33 PM 32.7833 -88.9858 250° West 151 174 3,000  Level Memphis Center
Tue 02:46:33 PM 32.7692 -89.0331 250° West 151 174 2,900  Descending Memphis Center
Tue 02:47:33 PM 32.7572 -89.0778 252° West 151 174 3,000 100 Climbing Memphis Center
Tue 02:48:33 PM 32.7431 -89.1222 249° West 151 174 3,100  Climbing Memphis Center
Tue 02:49:33 PM 32.7289 -89.1694 250° West 151 174 3,000 -50 Descending Memphis Center
Tue 02:50:33 PM 32.7167 -89.2142 252° West 151 174 3,000  Level Memphis Center
Tue 02:51:33 PM 32.7006 -89.2611 248° West 151 174 3,000  Level Memphis Center
Tue 02:52:33 PM 32.6861 -89.3058 249° West 151 174 3,000  Level Memphis Center
Tue 02:53:33 PM 32.6719 -89.3503 249° West 151 174 3,000  Level Memphis Center
Tue 02:54:33 PM 32.6597 -89.3975 253° West 151 174 3,000  Level Memphis Center
Tue 02:55:32 PM 32.6436 -89.4494 250° West 151 174 3,000 50 Level Memphis Center
Tue 02:56:33 PM 32.6292 -89.4914 248° West 151 174 3,100  Climbing Memphis Center
Tue 02:57:33 PM 32.6169 -89.5383 253° West 151 174 3,000  Descending Memphis Center
Tue 02:58:33 PM 32.6006 -89.5831 247° West 151 174 3,100 50 Climbing Memphis Center
Tue 02:59:33 PM 32.5861 -89.6275 249° West 151 174 3,100 -50 Level Memphis Center
Tue 03:00:33 PM 32.5739 -89.6769 254° West 151 174 3,000  Descending Memphis Center
Tue 03:01:33 PM 32.5597 -89.7214 249° West 151 174 3,100  Climbing Memphis Center
Tue 03:02:32 PM 32.5453 -89.7683 250° West 151 174 3,000 -250 Descending Memphis Center
Tue 03:03:33 PM 32.5289 -89.8153 248° West 151 174 2,600 -397 Descending Memphis Center
Tue 03:04:33 PM 32.5144 -89.8669 252° West 151 174 2,200 -200 Descending Memphis Center
Tue 03:05:33 PM 32.5000 -89.9114 249° West 151 174 2,200 400 Level Memphis Center
Tue 03:06:33 PM 32.4856 -89.9583 250° West 151 174 3,000 400 Climbing Memphis Center
Tue 03:07:33 PM 32.4689 -90.0003 245° Southwest 151 174 3,000  Level Memphis Center
Tue 03:08:33 PM 32.4544 -90.0447 249° West 151 174 3,000  Level Memphis Center
Tue 03:09:33 PM 32.4503 -90.0519 236° Southwest 151 174 3,000  Level Memphis Center
Tue 03:11:33 PM 32.4503 -90.0519 239° Southwest 151 174 3,000  Level Memphis Center

Login

Don't have an account? Register now (free) for customized features, flight alerts, and more!